sensor_id;sensor_type;location;lat;lon;timestamp;pressure;altitude;pressure_sealevel;temperature;humidity
50226;BME280;36113;50.742;6.432;2023-04-24T00:00:54;112741.81;;;-145.50;87.84
50226;BME280;36113;50.742;6.432;2023-04-24T00:03:24;112741.81;;;-145.50;87.75
50226;BME280;36113;50.742;6.432;2023-04-24T00:05:49;112741.81;;;-145.50;87.74
50226;BME280;36113;50.742;6.432;2023-04-24T00:08:16;112741.81;;;-145.50;87.84
50226;BME280;36113;50.742;6.432;2023-04-24T00:10:41;112741.81;;;-145.50;87.89
50226;BME280;36113;50.742;6.432;2023-04-24T00:13:07;112741.81;;;-145.50;87.42
50226;BME280;36113;50.742;6.432;2023-04-24T00:15:32;112741.81;;;-145.50;87.09
50226;BME280;36113;50.742;6.432;2023-04-24T00:17:58;112741.81;;;-145.50;86.63
50226;BME280;36113;50.742;6.432;2023-04-24T00:20:23;112741.81;;;-145.50;86.31
50226;BME280;36113;50.742;6.432;2023-04-24T00:22:48;112741.81;;;-145.50;85.48
50226;BME280;36113;50.742;6.432;2023-04-24T00:25:14;112741.81;;;-145.50;84.79
50226;BME280;36113;50.742;6.432;2023-04-24T00:27:39;112741.81;;;-145.50;83.71
50226;BME280;36113;50.742;6.432;2023-04-24T00:30:05;112741.81;;;-145.50;84.12
50226;BME280;36113;50.742;6.432;2023-04-24T00:32:31;112741.81;;;-145.50;84.78
50226;BME280;36113;50.742;6.432;2023-04-24T00:34:56;112741.81;;;-145.50;84.83
50226;BME280;36113;50.742;6.432;2023-04-24T00:37:21;112741.81;;;-145.50;84.36
50226;BME280;36113;50.742;6.432;2023-04-24T00:39:47;112741.81;;;-145.50;83.92
50226;BME280;36113;50.742;6.432;2023-04-24T00:42:12;112741.81;;;-145.50;84.24
50226;BME280;36113;50.742;6.432;2023-04-24T00:44:38;112741.81;;;-145.50;83.94
50226;BME280;36113;50.742;6.432;2023-04-24T00:47:03;112741.81;;;-145.50;83.57
50226;BME280;36113;50.742;6.432;2023-04-24T00:49:29;112741.81;;;-145.50;83.49
50226;BME280;36113;50.742;6.432;2023-04-24T00:51:56;112741.81;;;-145.50;83.11
50226;BME280;36113;50.742;6.432;2023-04-24T00:54:22;112741.81;;;-145.50;83.40
50226;BME280;36113;50.742;6.432;2023-04-24T00:56:47;112741.81;;;-145.50;83.54
50226;BME280;36113;50.742;6.432;2023-04-24T00:59:16;112741.81;;;-145.50;84.11
50226;BME280;36113;50.742;6.432;2023-04-24T01:01:43;112741.81;;;-145.50;83.62
50226;BME280;36113;50.742;6.432;2023-04-24T01:04:09;112741.81;;;-145.50;83.06
50226;BME280;36113;50.742;6.432;2023-04-24T01:06:38;112741.81;;;-145.50;83.13
50226;BME280;36113;50.742;6.432;2023-04-24T01:09:04;112741.81;;;-145.50;83.14
50226;BME280;36113;50.742;6.432;2023-04-24T01:11:30;112741.81;;;-145.50;83.14
50226;BME280;36113;50.742;6.432;2023-04-24T01:13:56;112741.81;;;-145.50;83.68
50226;BME280;36113;50.742;6.432;2023-04-24T01:16:21;112741.81;;;-145.50;83.81
50226;BME280;36113;50.742;6.432;2023-04-24T01:18:47;112741.81;;;-145.50;84.27
50226;BME280;36113;50.742;6.432;2023-04-24T01:21:14;112741.81;;;-145.50;84.95
50226;BME280;36113;50.742;6.432;2023-04-24T01:23:42;112741.81;;;-145.50;85.08
50226;BME280;36113;50.742;6.432;2023-04-24T01:26:07;112741.81;;;-145.50;85.33
50226;BME280;36113;50.742;6.432;2023-04-24T01:28:33;112741.81;;;-145.50;85.56
50226;BME280;36113;50.742;6.432;2023-04-24T01:30:58;112741.81;;;-145.50;85.86
50226;BME280;36113;50.742;6.432;2023-04-24T01:33:24;112741.81;;;-145.50;85.81
50226;BME280;36113;50.742;6.432;2023-04-24T01:35:50;112741.81;;;-145.50;85.89
50226;BME280;36113;50.742;6.432;2023-04-24T01:38:16;112741.81;;;-145.50;85.03
50226;BME280;36113;50.742;6.432;2023-04-24T01:40:41;112741.81;;;-145.50;85.17
50226;BME280;36113;50.742;6.432;2023-04-24T01:43:06;112741.81;;;-145.50;85.22
50226;BME280;36113;50.742;6.432;2023-04-24T01:45:32;112741.81;;;-145.50;85.43
50226;BME280;36113;50.742;6.432;2023-04-24T01:47:57;112741.81;;;-145.50;85.74
50226;BME280;36113;50.742;6.432;2023-04-24T01:50:23;112741.81;;;-145.50;85.07
50226;BME280;36113;50.742;6.432;2023-04-24T01:52:48;112741.81;;;-145.50;85.25
50226;BME280;36113;50.742;6.432;2023-04-24T01:55:13;112741.81;;;-145.50;85.54
50226;BME280;36113;50.742;6.432;2023-04-24T01:57:39;112741.81;;;-145.50;85.98
50226;BME280;36113;50.742;6.432;2023-04-24T02:00:05;112741.81;;;-145.50;86.41
50226;BME280;36113;50.742;6.432;2023-04-24T02:02:31;112741.81;;;-145.50;86.77
50226;BME280;36113;50.742;6.432;2023-04-24T02:04:57;112741.81;;;-145.50;86.57
50226;BME280;36113;50.742;6.432;2023-04-24T02:07:22;112741.81;;;-145.50;87.05
50226;BME280;36113;50.742;6.432;2023-04-24T02:09:48;112741.81;;;-145.50;87.38
50226;BME280;36113;50.742;6.432;2023-04-24T02:12:14;112741.81;;;-145.50;87.33
50226;BME280;36113;50.742;6.432;2023-04-24T02:14:39;112741.81;;;-145.50;87.26
50226;BME280;36113;50.742;6.432;2023-04-24T02:17:05;112741.81;;;-145.50;87.06
50226;BME280;36113;50.742;6.432;2023-04-24T02:19:31;112741.81;;;-145.50;86.89
50226;BME280;36113;50.742;6.432;2023-04-24T02:21:57;112741.81;;;-145.50;86.78
50226;BME280;36113;50.742;6.432;2023-04-24T02:24:22;112741.81;;;-145.50;87.23
50226;BME280;36113;50.742;6.432;2023-04-24T02:26:47;112741.81;;;-145.50;87.15
50226;BME280;36113;50.742;6.432;2023-04-24T02:29:13;112741.81;;;-145.50;87.22
50226;BME280;36113;50.742;6.432;2023-04-24T02:31:38;112741.81;;;-145.50;86.82
50226;BME280;36113;50.742;6.432;2023-04-24T02:34:03;112741.81;;;-145.50;87.19
50226;BME280;36113;50.742;6.432;2023-04-24T02:36:28;112741.81;;;-145.50;87.06
50226;BME280;36113;50.742;6.432;2023-04-24T02:38:54;112741.81;;;-145.50;86.88
50226;BME280;36113;50.742;6.432;2023-04-24T02:41:20;112741.81;;;-145.50;87.07
50226;BME280;36113;50.742;6.432;2023-04-24T02:43:45;112741.81;;;-145.50;87.50
50226;BME280;36113;50.742;6.432;2023-04-24T02:46:10;112741.81;;;-145.50;87.28
50226;BME280;36113;50.742;6.432;2023-04-24T02:48:36;112741.81;;;-145.50;87.46
50226;BME280;36113;50.742;6.432;2023-04-24T02:51:01;112741.81;;;-145.50;87.57
50226;BME280;36113;50.742;6.432;2023-04-24T02:53:26;112741.81;;;-145.50;87.57
50226;BME280;36113;50.742;6.432;2023-04-24T02:55:52;112741.81;;;-145.50;87.35
50226;BME280;36113;50.742;6.432;2023-04-24T02:58:17;112741.81;;;-145.50;87.49
50226;BME280;36113;50.742;6.432;2023-04-24T03:00:45;112741.81;;;-145.50;87.35
50226;BME280;36113;50.742;6.432;2023-04-24T03:03:10;112741.81;;;-145.50;87.59
50226;BME280;36113;50.742;6.432;2023-04-24T03:05:35;112741.81;;;-145.50;87.67
50226;BME280;36113;50.742;6.432;2023-04-24T03:08:01;112741.81;;;-145.50;87.48
50226;BME280;36113;50.742;6.432;2023-04-24T03:10:26;112741.81;;;-145.50;87.31
50226;BME280;36113;50.742;6.432;2023-04-24T03:12:51;112741.81;;;-145.50;87.69
50226;BME280;36113;50.742;6.432;2023-04-24T03:15:17;112741.81;;;-145.50;87.88
50226;BME280;36113;50.742;6.432;2023-04-24T03:17:42;112741.81;;;-145.50;88.20
50226;BME280;36113;50.742;6.432;2023-04-24T03:20:08;112741.81;;;-145.50;88.62
50226;BME280;36113;50.742;6.432;2023-04-24T03:22:33;112741.81;;;-145.50;88.65
50226;BME280;36113;50.742;6.432;2023-04-24T03:24:59;112741.81;;;-145.50;88.47
50226;BME280;36113;50.742;6.432;2023-04-24T03:27:24;112741.81;;;-145.50;88.42
50226;BME280;36113;50.742;6.432;2023-04-24T03:29:50;112741.81;;;-145.50;88.56
50226;BME280;36113;50.742;6.432;2023-04-24T03:32:21;112741.81;;;-145.50;88.70
50226;BME280;36113;50.742;6.432;2023-04-24T03:34:47;112741.81;;;-145.50;89.19
50226;BME280;36113;50.742;6.432;2023-04-24T03:37:12;112741.81;;;-145.50;89.64
50226;BME280;36113;50.742;6.432;2023-04-24T03:39:37;112741.81;;;-145.50;89.81
50226;BME280;36113;50.742;6.432;2023-04-24T03:42:03;112741.81;;;-145.50;89.51
50226;BME280;36113;50.742;6.432;2023-04-24T03:44:28;112741.81;;;-145.50;89.69
50226;BME280;36113;50.742;6.432;2023-04-24T03:46:53;112741.81;;;-145.50;90.13
50226;BME280;36113;50.742;6.432;2023-04-24T03:49:19;112741.81;;;-145.50;90.02
50226;BME280;36113;50.742;6.432;2023-04-24T03:51:44;112741.81;;;-145.50;89.27
50226;BME280;36113;50.742;6.432;2023-04-24T03:54:09;112741.81;;;-145.50;88.99
50226;BME280;36113;50.742;6.432;2023-04-24T03:56:35;112741.81;;;-145.50;89.19
50226;BME280;36113;50.742;6.432;2023-04-24T03:59:01;112741.81;;;-145.50;89.18
50226;BME280;36113;50.742;6.432;2023-04-24T04:01:26;112741.81;;;-145.50;89.19
50226;BME280;36113;50.742;6.432;2023-04-24T04:03:53;112741.81;;;-145.50;89.41
50226;BME280;36113;50.742;6.432;2023-04-24T04:06:18;112741.81;;;-145.50;88.96
50226;BME280;36113;50.742;6.432;2023-04-24T04:08:44;112741.81;;;-145.50;89.09
50226;BME280;36113;50.742;6.432;2023-04-24T04:11:09;112741.81;;;-145.50;89.11
50226;BME280;36113;50.742;6.432;2023-04-24T04:13:35;112741.81;;;-145.50;89.43
50226;BME280;36113;50.742;6.432;2023-04-24T04:16:00;112741.81;;;-145.50;89.47
50226;BME280;36113;50.742;6.432;2023-04-24T04:18:25;112741.81;;;-145.50;89.44
50226;BME280;36113;50.742;6.432;2023-04-24T04:20:51;112741.81;;;-145.50;89.81
50226;BME280;36113;50.742;6.432;2023-04-24T04:23:16;112741.81;;;-145.50;90.06
50226;BME280;36113;50.742;6.432;2023-04-24T04:25:41;112741.81;;;-145.50;91.05
50226;BME280;36113;50.742;6.432;2023-04-24T04:28:06;112741.81;;;-145.50;90.32
50226;BME280;36113;50.742;6.432;2023-04-24T04:30:32;112741.81;;;-145.50;90.06
50226;BME280;36113;50.742;6.432;2023-04-24T04:32:58;112741.81;;;-145.50;89.81
50226;BME280;36113;50.742;6.432;2023-04-24T04:35:24;112741.81;;;-145.50;89.68
50226;BME280;36113;50.742;6.432;2023-04-24T04:37:50;112741.81;;;-145.50;89.76
50226;BME280;36113;50.742;6.432;2023-04-24T04:40:16;112741.81;;;-145.50;90.18
50226;BME280;36113;50.742;6.432;2023-04-24T04:42:42;112741.81;;;-145.50;90.22
50226;BME280;36113;50.742;6.432;2023-04-24T04:45:11;112741.81;;;-145.50;90.21
50226;BME280;36113;50.742;6.432;2023-04-24T04:47:36;112741.81;;;-145.50;89.71
50226;BME280;36113;50.742;6.432;2023-04-24T04:50:02;112741.81;;;-145.50;89.83
50226;BME280;36113;50.742;6.432;2023-04-24T04:52:29;112741.81;;;-145.50;89.66
50226;BME280;36113;50.742;6.432;2023-04-24T04:54:54;112741.81;;;-145.50;89.45
50226;BME280;36113;50.742;6.432;2023-04-24T04:57:20;112741.81;;;-145.50;89.83
50226;BME280;36113;50.742;6.432;2023-04-24T04:59:45;112741.81;;;-145.50;89.64
50226;BME280;36113;50.742;6.432;2023-04-24T05:02:11;112741.81;;;-145.50;90.05
50226;BME280;36113;50.742;6.432;2023-04-24T05:04:36;112741.81;;;-145.50;89.56
50226;BME280;36113;50.742;6.432;2023-04-24T05:07:02;112741.81;;;-145.50;90.25
50226;BME280;36113;50.742;6.432;2023-04-24T05:09:28;112741.81;;;-145.50;89.28
50226;BME280;36113;50.742;6.432;2023-04-24T05:11:54;112741.81;;;-145.50;89.73
50226;BME280;36113;50.742;6.432;2023-04-24T05:14:20;112741.81;;;-145.50;90.46
50226;BME280;36113;50.742;6.432;2023-04-24T05:16:46;112741.81;;;-145.50;91.73
50226;BME280;36113;50.742;6.432;2023-04-24T05:19:11;112741.81;;;-145.50;90.23
50226;BME280;36113;50.742;6.432;2023-04-24T05:21:39;112741.81;;;-145.50;90.59
50226;BME280;36113;50.742;6.432;2023-04-24T05:24:04;112741.81;;;-145.50;91.27
50226;BME280;36113;50.742;6.432;2023-04-24T05:26:30;112741.81;;;-145.50;91.44
50226;BME280;36113;50.742;6.432;2023-04-24T05:28:55;112741.81;;;-145.50;91.57
50226;BME280;36113;50.742;6.432;2023-04-24T05:31:20;112741.81;;;-145.50;91.66
50226;BME280;36113;50.742;6.432;2023-04-24T05:33:46;112741.81;;;-145.50;91.25
50226;BME280;36113;50.742;6.432;2023-04-24T05:36:11;112741.81;;;-145.50;91.86
50226;BME280;36113;50.742;6.432;2023-04-24T05:38:37;112741.81;;;-145.50;91.82
50226;BME280;36113;50.742;6.432;2023-04-24T05:41:02;112741.81;;;-145.50;91.94
50226;BME280;36113;50.742;6.432;2023-04-24T05:43:27;112741.81;;;-145.50;91.46
50226;BME280;36113;50.742;6.432;2023-04-24T05:45:53;112741.81;;;-145.50;91.71
50226;BME280;36113;50.742;6.432;2023-04-24T05:48:18;112741.81;;;-145.50;92.15
50226;BME280;36113;50.742;6.432;2023-04-24T05:50:44;112741.81;;;-145.50;92.38
50226;BME280;36113;50.742;6.432;2023-04-24T05:53:09;112741.81;;;-145.50;92.22
50226;BME280;36113;50.742;6.432;2023-04-24T05:55:36;112741.81;;;-145.50;92.42
50226;BME280;36113;50.742;6.432;2023-04-24T05:58:01;112741.81;;;-145.50;92.19
50226;BME280;36113;50.742;6.432;2023-04-24T06:00:27;112741.81;;;-145.50;91.92
50226;BME280;36113;50.742;6.432;2023-04-24T06:02:53;112741.81;;;-145.50;92.40
50226;BME280;36113;50.742;6.432;2023-04-24T06:05:19;112741.81;;;-145.50;93.30
50226;BME280;36113;50.742;6.432;2023-04-24T06:07:44;112741.81;;;-145.50;93.39
50226;BME280;36113;50.742;6.432;2023-04-24T06:10:10;112741.81;;;-145.50;94.23
50226;BME280;36113;50.742;6.432;2023-04-24T06:12:35;112741.81;;;-145.50;94.98
50226;BME280;36113;50.742;6.432;2023-04-24T06:15:02;112741.81;;;-145.50;95.63
50226;BME280;36113;50.742;6.432;2023-04-24T06:17:27;112741.81;;;-145.50;96.04
50226;BME280;36113;50.742;6.432;2023-04-24T06:19:52;112741.81;;;-145.50;96.42
50226;BME280;36113;50.742;6.432;2023-04-24T06:22:18;112741.81;;;-145.50;96.56
50226;BME280;36113;50.742;6.432;2023-04-24T06:24:43;112741.81;;;-145.50;96.68
50226;BME280;36113;50.742;6.432;2023-04-24T06:27:09;112741.81;;;-145.50;96.94
50226;BME280;36113;50.742;6.432;2023-04-24T06:29:35;112741.81;;;-145.50;96.94
50226;BME280;36113;50.742;6.432;2023-04-24T06:32:01;112741.81;;;-145.50;97.53
50226;BME280;36113;50.742;6.432;2023-04-24T06:34:26;112741.81;;;-145.50;97.88
50226;BME280;36113;50.742;6.432;2023-04-24T06:36:52;112741.81;;;-145.50;98.41
50226;BME280;36113;50.742;6.432;2023-04-24T06:39:17;112741.81;;;-145.50;97.86
50226;BME280;36113;50.742;6.432;2023-04-24T06:41:42;112741.81;;;-145.50;97.98
50226;BME280;36113;50.742;6.432;2023-04-24T06:44:07;112741.81;;;-145.50;97.97
50226;BME280;36113;50.742;6.432;2023-04-24T06:46:33;112741.81;;;-145.50;97.64
50226;BME280;36113;50.742;6.432;2023-04-24T06:48:59;112741.81;;;-145.50;97.74
50226;BME280;36113;50.742;6.432;2023-04-24T06:51:26;112741.81;;;-145.50;97.61
50226;BME280;36113;50.742;6.432;2023-04-24T06:53:53;112741.81;;;-145.50;97.64
50226;BME280;36113;50.742;6.432;2023-04-24T06:56:18;112741.81;;;-145.50;96.97
50226;BME280;36113;50.742;6.432;2023-04-24T06:58:44;112741.81;;;-145.50;97.07
50226;BME280;36113;50.742;6.432;2023-04-24T07:01:10;112741.81;;;-145.50;97.39
50226;BME280;36113;50.742;6.432;2023-04-24T07:03:36;112741.81;;;-145.50;97.83
50226;BME280;36113;50.742;6.432;2023-04-24T07:06:01;112741.81;;;-145.50;98.16
50226;BME280;36113;50.742;6.432;2023-04-24T07:08:29;112741.81;;;-145.50;98.35
50226;BME280;36113;50.742;6.432;2023-04-24T07:10:59;112741.81;;;-145.50;98.92
50226;BME280;36113;50.742;6.432;2023-04-24T07:13:25;112741.81;;;-145.50;99.56
50226;BME280;36113;50.742;6.432;2023-04-24T07:15:51;112741.81;;;-145.50;99.96
50226;BME280;36113;50.742;6.432;2023-04-24T07:18:20;112741.81;;;-145.50;99.72
50226;BME280;36113;50.742;6.432;2023-04-24T07:20:46;112741.81;;;-145.50;100.00
50226;BME280;36113;50.742;6.432;2023-04-24T07:23:12;112741.81;;;-145.50;100.00
50226;BME280;36113;50.742;6.432;2023-04-24T07:25:37;112741.81;;;-145.50;100.00
50226;BME280;36113;50.742;6.432;2023-04-24T07:28:04;112741.81;;;-145.50;99.96
50226;BME280;36113;50.742;6.432;2023-04-24T07:30:30;112741.81;;;-145.50;99.79
50226;BME280;36113;50.742;6.432;2023-04-24T07:32:55;112741.81;;;-145.50;100.00
50226;BME280;36113;50.742;6.432;2023-04-24T07:35:21;112741.81;;;-145.50;99.78
50226;BME280;36113;50.742;6.432;2023-04-24T07:37:46;112741.81;;;-145.50;99.31
50226;BME280;36113;50.742;6.432;2023-04-24T07:40:15;112741.81;;;-145.50;99.33
50226;BME280;36113;50.742;6.432;2023-04-24T07:42:40;112741.81;;;-145.50;99.67
50226;BME280;36113;50.742;6.432;2023-04-24T07:45:06;112741.81;;;-145.50;99.62
50226;BME280;36113;50.742;6.432;2023-04-24T07:47:32;112741.81;;;-145.50;99.73
50226;BME280;36113;50.742;6.432;2023-04-24T07:49:58;112741.81;;;-145.50;100.00
50226;BME280;36113;50.742;6.432;2023-04-24T07:52:24;112741.81;;;-145.50;99.93
50226;BME280;36113;50.742;6.432;2023-04-24T07:54:49;112741.81;;;-145.50;99.24
50226;BME280;36113;50.742;6.432;2023-04-24T07:57:15;112741.81;;;-145.50;98.57
50226;BME280;36113;50.742;6.432;2023-04-24T07:59:41;112741.81;;;-145.50;97.29
50226;BME280;36113;50.742;6.432;2023-04-24T08:02:06;112741.81;;;-145.50;98.08
50226;BME280;36113;50.742;6.432;2023-04-24T08:04:32;112741.81;;;-145.50;98.64
50226;BME280;36113;50.742;6.432;2023-04-24T08:06:57;112741.81;;;-145.50;99.36
50226;BME280;36113;50.742;6.432;2023-04-24T08:09:22;112741.81;;;-145.50;99.43
50226;BME280;36113;50.742;6.432;2023-04-24T08:11:48;112741.81;;;-145.50;99.63
50226;BME280;36113;50.742;6.432;2023-04-24T08:14:13;112741.81;;;-145.50;100.00
50226;BME280;36113;50.742;6.432;2023-04-24T08:16:40;112741.81;;;-145.50;100.00
50226;BME280;36113;50.742;6.432;2023-04-24T08:19:05;112741.81;;;-145.50;100.00
50226;BME280;36113;50.742;6.432;2023-04-24T08:21:30;112741.81;;;-145.50;100.00
50226;BME280;36113;50.742;6.432;2023-04-24T08:23:56;112741.81;;;-145.50;100.00
50226;BME280;36113;50.742;6.432;2023-04-24T08:26:22;112741.81;;;-145.50;100.00
50226;BME280;36113;50.742;6.432;2023-04-24T08:28:47;112741.81;;;-145.50;100.00
50226;BME280;36113;50.742;6.432;2023-04-24T08:31:12;112741.81;;;-145.50;100.00
50226;BME280;36113;50.742;6.432;2023-04-24T08:33:38;112741.81;;;-145.50;100.00
50226;BME280;36113;50.742;6.432;2023-04-24T08:36:04;112741.81;;;-145.50;100.00
50226;BME280;36113;50.742;6.432;2023-04-24T08:38:30;112741.81;;;-145.50;100.00
50226;BME280;36113;50.742;6.432;2023-04-24T08:41:00;112741.81;;;-145.50;100.00
50226;BME280;36113;50.742;6.432;2023-04-24T08:43:26;112741.81;;;-145.50;100.00
50226;BME280;36113;50.742;6.432;2023-04-24T08:45:53;112741.81;;;-145.50;100.00
50226;BME280;36113;50.742;6.432;2023-04-24T08:48:22;112741.81;;;-145.50;100.00
50226;BME280;36113;50.742;6.432;2023-04-24T08:50:47;112741.81;;;-145.50;100.00
50226;BME280;36113;50.742;6.432;2023-04-24T08:53:13;112741.81;;;-145.50;100.00
50226;BME280;36113;50.742;6.432;2023-04-24T08:55:41;112741.81;;;-145.50;100.00
50226;BME280;36113;50.742;6.432;2023-04-24T08:58:08;112741.81;;;-145.50;100.00
50226;BME280;36113;50.742;6.432;2023-04-24T09:00:33;112741.81;;;-145.50;99.85
50226;BME280;36113;50.742;6.432;2023-04-24T09:03:00;112741.81;;;-145.50;99.48
50226;BME280;36113;50.742;6.432;2023-04-24T09:05:26;112741.81;;;-145.50;98.95
50226;BME280;36113;50.742;6.432;2023-04-24T09:07:55;112741.81;;;-145.50;100.00
50226;BME280;36113;50.742;6.432;2023-04-24T09:10:25;112741.81;;;-145.50;100.00
50226;BME280;36113;50.742;6.432;2023-04-24T09:12:51;112741.81;;;-145.50;100.00
50226;BME280;36113;50.742;6.432;2023-04-24T09:15:18;112741.81;;;-145.50;100.00
50226;BME280;36113;50.742;6.432;2023-04-24T09:17:43;112741.81;;;-145.50;100.00
50226;BME280;36113;50.742;6.432;2023-04-24T09:20:09;112741.81;;;-145.50;100.00
50226;BME280;36113;50.742;6.432;2023-04-24T09:22:34;112741.81;;;-145.50;100.00
50226;BME280;36113;50.742;6.432;2023-04-24T09:25:09;112741.81;;;-145.50;100.00
50226;BME280;36113;50.742;6.432;2023-04-24T09:27:41;112741.81;;;-145.50;100.00
50226;BME280;36113;50.742;6.432;2023-04-24T09:30:07;112741.81;;;-145.50;100.00
50226;BME280;36113;50.742;6.432;2023-04-24T09:32:33;112741.81;;;-145.50;100.00
50226;BME280;36113;50.742;6.432;2023-04-24T09:35:10;112741.81;;;-145.50;100.00
50226;BME280;36113;50.742;6.432;2023-04-24T09:37:37;112741.81;;;-145.50;100.00
50226;BME280;36113;50.742;6.432;2023-04-24T09:40:17;112741.81;;;-145.50;100.00
50226;BME280;36113;50.742;6.432;2023-04-24T09:43:02;112741.81;;;-145.50;100.00
50226;BME280;36113;50.742;6.432;2023-04-24T09:45:34;112741.81;;;-145.50;99.33
50226;BME280;36113;50.742;6.432;2023-04-24T09:48:00;112741.81;;;-145.50;99.78
50226;BME280;36113;50.742;6.432;2023-04-24T09:50:25;112741.81;;;-145.50;99.93
50226;BME280;36113;50.742;6.432;2023-04-24T09:53:05;112741.81;;;-145.50;100.00
50226;BME280;36113;50.742;6.432;2023-04-24T09:55:31;112741.81;;;-145.50;100.00
50226;BME280;36113;50.742;6.432;2023-04-24T09:57:58;112741.81;;;-145.50;100.00
50226;BME280;36113;50.742;6.432;2023-04-24T10:00:31;112741.81;;;-145.50;99.64
50226;BME280;36113;50.742;6.432;2023-04-24T10:02:57;112741.81;;;-145.50;99.41
50226;BME280;36113;50.742;6.432;2023-04-24T10:05:45;112741.81;;;-145.50;98.89
50226;BME280;36113;50.742;6.432;2023-04-24T10:08:11;112741.81;;;-145.50;98.79
50226;BME280;36113;50.742;6.432;2023-04-24T10:10:44;112741.81;;;-145.50;98.40
50226;BME280;36113;50.742;6.432;2023-04-24T10:13:11;112741.81;;;-145.50;98.87
50226;BME280;36113;50.742;6.432;2023-04-24T10:15:38;112741.81;;;-145.50;98.19
50226;BME280;36113;50.742;6.432;2023-04-24T10:18:07;112741.81;;;-145.50;97.21
50226;BME280;36113;50.742;6.432;2023-04-24T10:20:34;112741.81;;;-145.50;97.07
50226;BME280;36113;50.742;6.432;2023-04-24T10:23:00;112741.81;;;-145.50;96.16
50226;BME280;36113;50.742;6.432;2023-04-24T10:25:27;112741.81;;;-145.50;94.07
50226;BME280;36113;50.742;6.432;2023-04-24T10:27:54;112741.81;;;-145.50;93.15
50226;BME280;36113;50.742;6.432;2023-04-24T10:30:24;112741.81;;;-145.50;90.74
50226;BME280;36113;50.742;6.432;2023-04-24T10:32:50;112741.81;;;-145.50;90.08
50226;BME280;36113;50.742;6.432;2023-04-24T10:35:17;112741.81;;;-145.50;90.05
50226;BME280;36113;50.742;6.432;2023-04-24T10:37:47;112741.81;;;-145.50;88.79
50226;BME280;36113;50.742;6.432;2023-04-24T10:40:32;112741.81;;;-145.50;85.40
50226;BME280;36113;50.742;6.432;2023-04-24T10:42:58;112741.81;;;-145.50;83.27
50226;BME280;36113;50.742;6.432;2023-04-24T10:45:24;112741.81;;;-145.50;84.45
50226;BME280;36113;50.742;6.432;2023-04-24T10:47:57;112741.81;;;-145.50;86.00
50226;BME280;36113;50.742;6.432;2023-04-24T10:50:25;112741.81;;;-145.50;85.77
50226;BME280;36113;50.742;6.432;2023-04-24T10:52:51;112741.81;;;-145.50;84.95
50226;BME280;36113;50.742;6.432;2023-04-24T10:58:09;112741.81;;;-145.50;85.67
50226;BME280;36113;50.742;6.432;2023-04-24T11:00:39;112741.81;;;-145.50;84.67
50226;BME280;36113;50.742;6.432;2023-04-24T11:03:07;112741.81;;;-145.50;83.39
50226;BME280;36113;50.742;6.432;2023-04-24T11:05:52;112741.81;;;-145.50;83.01
50226;BME280;36113;50.742;6.432;2023-04-24T11:08:24;112741.81;;;-145.50;83.39
50226;BME280;36113;50.742;6.432;2023-04-24T11:11:01;112741.81;;;-145.50;86.21
50226;BME280;36113;50.742;6.432;2023-04-24T11:16:38;112741.81;;;-145.50;86.63
50226;BME280;36113;50.742;6.432;2023-04-24T11:19:09;112741.81;;;-145.50;85.82
50226;BME280;36113;50.742;6.432;2023-04-24T11:21:57;112741.81;;;-145.50;85.97
50226;BME280;36113;50.742;6.432;2023-04-24T11:24:24;112741.81;;;-145.50;86.16
50226;BME280;36113;50.742;6.432;2023-04-24T11:27:05;112741.81;;;-145.50;86.08
50226;BME280;36113;50.742;6.432;2023-04-24T11:29:47;112741.81;;;-145.50;85.65
50226;BME280;36113;50.742;6.432;2023-04-24T11:32:18;112741.81;;;-145.50;86.17
50226;BME280;36113;50.742;6.432;2023-04-24T11:34:52;112741.81;;;-145.50;86.77
50226;BME280;36113;50.742;6.432;2023-04-24T11:37:18;112741.81;;;-145.50;87.43
50226;BME280;36113;50.742;6.432;2023-04-24T11:39:43;112741.81;;;-145.50;88.27
50226;BME280;36113;50.742;6.432;2023-04-24T11:42:09;112741.81;;;-145.50;88.07
50226;BME280;36113;50.742;6.432;2023-04-24T11:44:35;112741.81;;;-145.50;87.45
50226;BME280;36113;50.742;6.432;2023-04-24T11:47:05;112741.81;;;-145.50;87.00
50226;BME280;36113;50.742;6.432;2023-04-24T11:49:30;112741.81;;;-145.50;84.42
50226;BME280;36113;50.742;6.432;2023-04-24T11:51:56;112741.81;;;-145.50;79.83
50226;BME280;36113;50.742;6.432;2023-04-24T11:54:21;112741.81;;;-145.50;79.49
50226;BME280;36113;50.742;6.432;2023-04-24T11:56:47;112741.81;;;-145.50;80.31
50226;BME280;36113;50.742;6.432;2023-04-24T11:59:13;112741.81;;;-145.50;78.33
50226;BME280;36113;50.742;6.432;2023-04-24T12:01:45;112741.81;;;-145.50;76.32
50226;BME280;36113;50.742;6.432;2023-04-24T12:04:12;112741.81;;;-145.50;74.98
50226;BME280;36113;50.742;6.432;2023-04-24T12:06:37;112741.81;;;-145.50;76.97
50226;BME280;36113;50.742;6.432;2023-04-24T12:09:02;112741.81;;;-145.50;75.16
50226;BME280;36113;50.742;6.432;2023-04-24T12:11:28;112741.81;;;-145.50;72.64
50226;BME280;36113;50.742;6.432;2023-04-24T12:13:54;112741.81;;;-145.50;73.32
50226;BME280;36113;50.742;6.432;2023-04-24T12:16:20;112741.81;;;-145.50;73.15
50226;BME280;36113;50.742;6.432;2023-04-24T12:18:45;112741.81;;;-145.50;73.13
50226;BME280;36113;50.742;6.432;2023-04-24T12:21:23;112741.81;;;-145.50;71.83
50226;BME280;36113;50.742;6.432;2023-04-24T12:23:54;112741.81;;;-145.50;72.56
50226;BME280;36113;50.742;6.432;2023-04-24T12:26:20;112741.81;;;-145.50;76.19
50226;BME280;36113;50.742;6.432;2023-04-24T12:28:48;112741.81;;;-145.50;78.78
50226;BME280;36113;50.742;6.432;2023-04-24T12:31:16;112741.81;;;-145.50;80.94